createdAt,value
2023-02-15T00:01:10.350Z,3.07
2023-02-15T00:02:11.987Z,3.04
2023-02-15T00:03:13.730Z,2.98
2023-02-15T00:04:17.723Z,2.96
2023-02-15T00:05:19.330Z,2.98
2023-02-15T00:06:20.928Z,3.03
2023-02-15T00:07:22.622Z,3.07
2023-02-15T00:08:24.242Z,3.11
2023-02-15T00:09:25.742Z,3.14
2023-02-15T00:10:27.353Z,3.14
2023-02-15T00:11:29.155Z,3.12
2023-02-15T00:12:30.760Z,3.14
2023-02-15T00:13:32.368Z,3.05
2023-02-15T00:14:34.278Z,2.90
2023-02-15T00:15:35.883Z,2.92
2023-02-15T00:16:38.636Z,2.81
2023-02-15T00:17:40.226Z,2.77
2023-02-15T00:18:41.845Z,2.80
2023-02-15T00:19:43.537Z,2.81
2023-02-15T00:20:45.139Z,2.82
2023-02-15T00:21:47.555Z,2.88
2023-02-15T00:22:49.165Z,2.91
2023-02-15T00:23:50.970Z,2.90
2023-02-15T00:24:52.580Z,2.76
2023-02-15T00:26:07.278Z,2.59
2023-02-15T00:27:08.879Z,2.53
2023-02-15T00:28:10.488Z,2.49
2023-02-15T00:29:13.642Z,2.45
2023-02-15T00:30:15.353Z,2.41
2023-02-15T00:31:17.167Z,2.39
2023-02-15T00:32:18.754Z,2.38
2023-02-15T00:33:20.343Z,2.39
2023-02-15T00:34:24.603Z,2.39
2023-02-15T00:35:26.121Z,2.35
2023-02-15T00:36:27.726Z,2.37
2023-02-15T00:37:29.332Z,2.39
2023-02-15T00:38:31.856Z,2.47
2023-02-15T00:39:33.563Z,2.54
2023-02-15T00:40:35.169Z,2.56
2023-02-15T00:41:37.354Z,2.58
2023-02-15T00:42:38.990Z,2.67
2023-02-15T00:43:40.499Z,2.70
2023-02-15T00:44:42.525Z,2.67
2023-02-15T00:45:45.672Z,2.60
2023-02-15T00:46:47.353Z,2.53
2023-02-15T00:47:48.852Z,2.48
2023-02-15T00:48:51.044Z,2.49
2023-02-15T00:49:52.579Z,2.52
2023-02-15T00:50:56.436Z,2.52
2023-02-15T00:51:57.955Z,2.57
2023-02-15T00:52:59.542Z,2.63
2023-02-15T00:54:01.247Z,2.67
2023-02-15T00:55:05.131Z,2.72
2023-02-15T00:56:06.896Z,2.75
2023-02-15T00:57:08.512Z,2.69
2023-02-15T00:58:11.573Z,2.64
2023-02-15T00:59:13.262Z,2.67
2023-02-15T01:00:15.072Z,2.72
2023-02-15T01:01:19.057Z,2.77
2023-02-15T01:02:20.740Z,2.75
2023-02-15T01:03:22.325Z,2.72
2023-02-15T01:04:23.930Z,2.72
2023-02-15T01:05:25.554Z,2.74
2023-02-15T01:06:27.166Z,2.74
2023-02-15T01:07:28.683Z,2.72
2023-02-15T01:08:30.366Z,2.64
2023-02-15T01:09:31.973Z,2.61
2023-02-15T01:10:35.264Z,2.58
2023-02-15T01:11:36.821Z,2.51
2023-02-15T01:12:38.327Z,2.48
2023-02-15T01:13:41.982Z,2.49
2023-02-15T01:14:43.582Z,2.48
2023-02-15T01:15:45.828Z,2.52
2023-02-15T01:16:47.405Z,2.56
2023-02-15T01:17:48.906Z,2.59
2023-02-15T01:18:50.619Z,2.60
2023-02-15T01:19:52.321Z,2.53
2023-02-15T01:20:54.434Z,2.52
2023-02-15T01:21:56.028Z,2.53
2023-02-15T01:22:58.195Z,2.57
2023-02-15T01:23:59.763Z,2.55
2023-02-15T01:25:01.373Z,2.52
2023-02-15T01:26:04.914Z,2.44
2023-02-15T01:27:06.505Z,2.45
2023-02-15T01:28:08.228Z,2.34
2023-02-15T01:29:09.838Z,2.33
2023-02-15T01:30:12.600Z,2.38
2023-02-15T01:31:16.863Z,2.44
2023-02-15T01:32:20.172Z,2.50
2023-02-15T01:33:22.389Z,2.45
2023-02-15T01:34:23.967Z,2.45
2023-02-15T01:35:25.599Z,2.46
2023-02-15T01:36:29.150Z,2.50
2023-02-15T01:37:34.697Z,2.53
2023-02-15T01:38:36.775Z,2.48
2023-02-15T01:39:40.925Z,2.44
2023-02-15T01:40:42.834Z,2.43
2023-02-15T01:41:44.437Z,2.42
2023-02-15T01:42:46.548Z,2.42
2023-02-15T01:43:54.601Z,2.37
2023-02-15T01:45:03.375Z,2.32
2023-02-15T01:46:05.245Z,2.31
2023-02-15T01:47:12.524Z,2.29
2023-02-15T01:48:27.736Z,2.28
2023-02-15T01:49:29.457Z,2.31
2023-02-15T01:50:38.407Z,2.23
2023-02-15T01:51:43.262Z,2.27
2023-02-15T01:52:51.941Z,2.31
2023-02-15T01:54:00.159Z,2.32
2023-02-15T01:55:02.943Z,2.35
2023-02-15T01:56:10.175Z,2.18
2023-02-15T01:57:16.591Z,2.10
2023-02-15T01:58:19.320Z,2.00
2023-02-15T01:59:24.345Z,1.93
2023-02-15T02:00:26.054Z,1.82
2023-02-15T02:01:28.529Z,1.81
2023-02-15T02:02:32.563Z,1.81
2023-02-15T02:04:05.158Z,1.72
2023-02-15T02:05:08.921Z,1.62
2023-02-15T02:06:11.280Z,1.56
2023-02-15T02:07:18.411Z,1.51
2023-02-15T02:08:20.015Z,1.50
2023-02-15T02:09:22.236Z,1.51
2023-02-15T02:10:25.785Z,1.51
2023-02-15T02:11:27.388Z,1.55
2023-02-15T02:12:29.912Z,1.58
2023-02-15T02:13:31.619Z,1.63
2023-02-15T02:14:33.455Z,1.69
2023-02-15T02:16:04.260Z,1.70
2023-02-15T02:17:36.197Z,1.79
2023-02-15T02:18:58.787Z,1.80
2023-02-15T02:20:24.962Z,1.76
2023-02-15T02:21:32.382Z,1.75
2023-02-15T02:22:42.992Z,1.76
2023-02-15T02:24:05.877Z,1.74
2023-02-15T02:25:22.842Z,1.75
2023-02-15T02:26:24.325Z,1.77
2023-02-15T02:27:42.524Z,1.80
2023-02-15T02:28:53.034Z,1.85
2023-02-15T02:30:06.640Z,1.77
2023-02-15T02:31:23.329Z,1.71
2023-02-15T02:32:27.888Z,1.75
2023-02-15T02:34:03.701Z,1.76
2023-02-15T02:35:11.400Z,1.69
2023-02-15T02:36:29.237Z,1.67
2023-02-15T02:37:49.061Z,1.63
2023-02-15T02:39:12.455Z,1.50
2023-02-15T02:40:34.220Z,1.46
2023-02-15T02:42:17.075Z,1.51
2023-02-15T02:43:33.689Z,1.54
2023-02-15T02:44:50.672Z,1.46
2023-02-15T02:45:59.380Z,1.50
2023-02-15T02:47:09.226Z,1.56
2023-02-15T02:48:16.110Z,1.53
2023-02-15T02:49:17.657Z,1.55
2023-02-15T02:50:24.275Z,1.57
2023-02-15T02:51:25.811Z,1.56
2023-02-15T02:52:39.160Z,1.58
2023-02-15T02:53:41.467Z,1.61
2023-02-15T02:54:43.081Z,1.66
2023-02-15T02:55:54.604Z,1.63
2023-02-15T02:57:00.514Z,1.65
2023-02-15T02:58:09.070Z,1.64
2023-02-15T02:59:10.575Z,1.63
2023-02-15T03:00:14.326Z,1.66
2023-02-15T03:01:28.281Z,1.68
2023-02-15T03:02:36.083Z,1.64
2023-02-15T03:03:44.629Z,1.63
2023-02-15T03:04:55.728Z,1.59
2023-02-15T03:06:01.998Z,1.61
2023-02-15T03:07:16.353Z,1.59
2023-02-15T03:08:22.355Z,1.57
2023-02-15T03:09:36.956Z,1.57
2023-02-15T03:10:41.527Z,1.59
2023-02-15T03:11:47.327Z,1.63
2023-02-15T03:12:51.192Z,1.62
2023-02-15T03:13:53.104Z,1.62
2023-02-15T03:15:02.351Z,1.60
2023-02-15T03:16:06.981Z,1.47
2023-02-15T03:17:09.890Z,1.40
2023-02-15T03:18:11.795Z,1.37
2023-02-15T03:19:18.521Z,1.36
2023-02-15T03:20:29.636Z,1.37
2023-02-15T03:21:37.386Z,1.38
2023-02-15T03:23:00.277Z,1.38
2023-02-15T03:24:09.181Z,1.37
2023-02-15T03:25:25.183Z,1.33
2023-02-15T03:26:29.449Z,1.29
2023-02-15T03:27:46.627Z,1.22
2023-02-15T03:28:53.532Z,1.14
2023-02-15T03:29:59.786Z,1.13
2023-02-15T03:31:04.916Z,1.14
2023-02-15T03:32:12.134Z,1.09
2023-02-15T03:33:15.215Z,1.06
2023-02-15T03:34:18.441Z,1.07
2023-02-15T03:35:26.393Z,1.11
2023-02-15T03:36:31.988Z,1.14
2023-02-15T03:37:40.052Z,1.15
2023-02-15T03:38:52.184Z,1.14
2023-02-15T03:40:31.818Z,1.08
2023-02-15T03:41:40.630Z,1.07
2023-02-15T03:42:44.076Z,1.05
2023-02-15T03:43:59.281Z,0.98
2023-02-15T03:45:06.574Z,0.97
2023-02-15T03:46:17.147Z,0.92
2023-02-15T03:47:24.265Z,0.79
2023-02-15T03:48:31.090Z,0.70
2023-02-15T03:49:38.259Z,0.64
2023-02-15T03:50:41.255Z,0.60
2023-02-15T03:51:46.950Z,0.57
2023-02-15T03:52:48.765Z,0.62
2023-02-15T03:53:52.409Z,0.60
2023-02-15T03:54:54.320Z,0.54
2023-02-15T03:55:56.541Z,0.51
2023-02-15T03:56:58.533Z,0.47
2023-02-15T03:58:00.057Z,0.40
2023-02-15T03:59:01.652Z,0.39
2023-02-15T04:00:06.849Z,0.32
2023-02-15T04:01:34.401Z,0.31
2023-02-15T04:02:48.551Z,0.35
2023-02-15T04:04:05.698Z,0.37
2023-02-15T04:05:07.296Z,0.37
2023-02-15T04:06:09.005Z,0.45
2023-02-15T04:07:10.916Z,0.54
2023-02-15T04:08:13.549Z,0.60
2023-02-15T04:09:15.232Z,0.63
2023-02-15T04:10:16.859Z,0.65
2023-02-15T04:11:18.472Z,0.67
2023-02-15T04:12:20.474Z,0.74
2023-02-15T04:13:24.844Z,0.74
2023-02-15T04:14:26.751Z,0.79
2023-02-15T04:15:28.360Z,0.83
2023-02-15T04:16:31.267Z,0.85
2023-02-15T04:17:33.200Z,0.76
2023-02-15T04:18:39.867Z,0.70
2023-02-15T04:19:41.426Z,0.67
2023-02-15T04:20:47.127Z,0.65
2023-02-15T04:21:48.702Z,0.66
2023-02-15T04:22:50.239Z,0.67
2023-02-15T04:23:51.801Z,0.68
2023-02-15T04:24:53.327Z,0.71
2023-02-15T04:25:54.871Z,0.72
2023-02-15T04:26:56.921Z,0.70
2023-02-15T04:27:58.464Z,0.69
2023-02-15T04:29:00.014Z,0.58
2023-02-15T04:30:01.696Z,0.49
2023-02-15T04:31:03.310Z,0.49
2023-02-15T04:32:05.173Z,0.53
2023-02-15T04:33:06.786Z,0.55
2023-02-15T04:34:08.276Z,0.59
2023-02-15T04:35:10.321Z,0.58
2023-02-15T04:36:11.902Z,0.50
2023-02-15T04:37:13.411Z,0.39
2023-02-15T04:38:14.913Z,0.34
2023-02-15T04:39:18.027Z,0.28
2023-02-15T04:40:19.917Z,0.22
2023-02-15T04:41:21.459Z,0.15
2023-02-15T04:42:23.033Z,0.13
2023-02-15T04:43:24.674Z,0.21
2023-02-15T04:44:26.282Z,0.27
2023-02-15T04:45:27.905Z,0.27
2023-02-15T04:46:29.494Z,0.33
2023-02-15T04:47:31.054Z,0.35
2023-02-15T04:48:32.651Z,0.39
2023-02-15T04:49:34.196Z,0.45
2023-02-15T04:50:36.010Z,0.48
2023-02-15T04:51:37.620Z,0.49
2023-02-15T04:52:39.292Z,0.44
2023-02-15T04:53:40.915Z,0.34
2023-02-15T04:54:42.433Z,0.27
2023-02-15T04:55:44.015Z,0.23
2023-02-15T04:56:45.637Z,0.23
2023-02-15T04:57:47.304Z,0.24
2023-02-15T04:58:49.152Z,0.24
2023-02-15T04:59:50.758Z,0.26
2023-02-15T05:00:52.689Z,0.25
2023-02-15T05:01:54.378Z,0.21
2023-02-15T05:02:55.883Z,0.22
2023-02-15T05:03:58.012Z,0.21
2023-02-15T05:04:59.644Z,0.14
2023-02-15T05:06:01.812Z,0.16
2023-02-15T05:07:03.632Z,0.15
2023-02-15T05:08:05.192Z,0.18
2023-02-15T05:09:06.764Z,0.18
2023-02-15T05:10:08.905Z,0.19
2023-02-15T05:11:10.456Z,0.21
2023-02-15T05:12:11.979Z,0.25
2023-02-15T05:13:13.564Z,0.29
2023-02-15T05:14:15.179Z,0.31
2023-02-15T05:15:16.794Z,0.34
2023-02-15T05:16:18.703Z,0.32
2023-02-15T05:17:20.226Z,0.34
2023-02-15T05:18:22.612Z,0.39
2023-02-15T05:19:24.128Z,0.38
2023-02-15T05:20:25.719Z,0.36
2023-02-15T05:21:27.330Z,0.38
2023-02-15T05:22:28.929Z,0.44
2023-02-15T05:23:30.472Z,0.41
2023-02-15T05:24:32.135Z,0.41
2023-02-15T05:25:33.716Z,0.36
2023-02-15T05:26:35.346Z,0.33
2023-02-15T05:27:36.953Z,0.28
2023-02-15T05:28:39.069Z,0.28
2023-02-15T05:29:40.646Z,0.22
2023-02-15T05:30:42.412Z,0.17
2023-02-15T05:31:44.387Z,0.19
2023-02-15T05:32:46.166Z,0.26
2023-02-15T05:33:47.823Z,0.21
2023-02-15T05:34:49.455Z,0.20
2023-02-15T05:35:50.973Z,0.12
2023-02-15T05:36:52.515Z,0.02
2023-02-15T05:37:54.002Z,-0.02
2023-02-15T05:38:55.945Z,-0.06
2023-02-15T05:39:57.545Z,-0.06
2023-02-15T05:40:59.249Z,-0.07
2023-02-15T05:42:01.266Z,-0.07
2023-02-15T05:43:02.868Z,-0.10
2023-02-15T05:44:04.635Z,-0.13
2023-02-15T05:45:06.792Z,-0.20
2023-02-15T05:46:08.963Z,-0.22
2023-02-15T05:47:10.595Z,-0.20
2023-02-15T05:48:12.121Z,-0.21
2023-02-15T05:49:13.681Z,-0.23
2023-02-15T05:50:15.439Z,-0.28
2023-02-15T05:51:17.555Z,-0.32
2023-02-15T05:52:19.168Z,-0.32
2023-02-15T05:53:20.758Z,-0.30
2023-02-15T05:54:22.322Z,-0.31
2023-02-15T05:55:23.864Z,-0.35
2023-02-15T05:56:25.368Z,-0.36
2023-02-15T05:57:27.665Z,-0.34
2023-02-15T05:58:31.548Z,-0.37
2023-02-15T05:59:33.048Z,-0.39
2023-02-15T06:00:37.818Z,-0.37
2023-02-15T06:01:39.634Z,-0.37
2023-02-15T06:02:41.635Z,-0.38
2023-02-15T06:03:43.549Z,-0.37
2023-02-15T06:04:45.150Z,-0.32
2023-02-15T06:05:46.768Z,-0.31
2023-02-15T06:06:48.415Z,-0.28
2023-02-15T06:07:49.981Z,-0.22
2023-02-15T06:08:51.482Z,-0.13
2023-02-15T06:09:53.085Z,-0.09
2023-02-15T06:10:54.606Z,-0.04
2023-02-15T06:11:56.194Z,0.00
2023-02-15T06:12:57.834Z,0.07
2023-02-15T06:13:59.402Z,0.13
2023-02-15T06:15:00.979Z,0.22
2023-02-15T06:16:03.001Z,0.24
2023-02-15T06:17:04.736Z,0.34
2023-02-15T06:18:06.311Z,0.46
2023-02-15T06:19:07.860Z,0.59
2023-02-15T06:20:10.419Z,0.72
2023-02-15T06:21:11.969Z,0.85
2023-02-15T06:22:13.570Z,0.88
2023-02-15T06:23:15.893Z,0.98
2023-02-15T06:24:17.399Z,1.08
2023-02-15T06:25:19.000Z,1.11
2023-02-15T06:26:20.602Z,1.13
2023-02-15T06:27:22.106Z,1.09
2023-02-15T06:28:23.718Z,1.15
2023-02-15T06:29:25.313Z,1.26
2023-02-15T06:30:26.918Z,1.51
2023-02-15T06:31:28.582Z,1.73
2023-02-15T06:32:30.169Z,1.93
2023-02-15T06:33:31.732Z,2.15
2023-02-15T06:34:33.442Z,2.30
2023-02-15T06:35:35.061Z,2.37
2023-02-15T06:36:36.649Z,2.51
2023-02-15T06:37:38.458Z,2.61
2023-02-15T06:38:39.962Z,2.76
2023-02-15T06:39:41.476Z,2.89
2023-02-15T06:40:42.981Z,2.96
2023-02-15T06:41:44.566Z,2.88
2023-02-15T06:42:46.276Z,3.00
2023-02-15T06:43:47.844Z,3.17
2023-02-15T06:44:49.488Z,3.35
2023-02-15T06:45:51.091Z,3.53
2023-02-15T06:46:52.699Z,3.74
2023-02-15T06:47:54.236Z,4.03
2023-02-15T06:48:55.878Z,4.27
2023-02-15T06:49:57.418Z,4.41
2023-02-15T06:50:59.013Z,4.47
2023-02-15T06:52:00.608Z,4.66
2023-02-15T06:53:02.227Z,4.69
2023-02-15T06:54:03.728Z,4.73
2023-02-15T06:55:05.954Z,4.78
2023-02-15T06:56:08.434Z,4.92
2023-02-15T06:57:10.049Z,5.04
2023-02-15T06:58:11.678Z,5.18
2023-02-15T06:59:13.245Z,5.29
2023-02-15T07:00:15.370Z,5.43
2023-02-15T07:01:17.038Z,5.60
2023-02-15T07:02:18.614Z,5.66
2023-02-15T07:03:20.110Z,5.70
2023-02-15T07:04:21.626Z,5.92
2023-02-15T07:05:23.930Z,6.00
2023-02-15T07:06:25.483Z,6.18
2023-02-15T07:07:27.041Z,6.27
2023-02-15T07:08:28.905Z,6.28
2023-02-15T07:09:30.566Z,6.20
2023-02-15T07:10:32.202Z,6.11
2023-02-15T07:11:33.821Z,6.01
2023-02-15T07:12:35.364Z,5.90
2023-02-15T07:13:36.914Z,5.70
2023-02-15T07:14:38.444Z,5.62
2023-02-15T07:15:40.113Z,5.56
2023-02-15T07:16:41.722Z,5.56
2023-02-15T07:17:44.319Z,5.37
2023-02-15T07:18:46.088Z,5.09
2023-02-15T07:19:47.622Z,4.91
2023-02-15T07:20:49.183Z,4.72
2023-02-15T07:21:50.732Z,4.77
2023-02-15T07:22:52.683Z,4.82
2023-02-15T07:23:58.174Z,5.01
2023-02-15T07:24:59.717Z,5.20
2023-02-15T07:26:01.942Z,5.29
2023-02-15T07:27:03.821Z,5.37
2023-02-15T07:28:05.359Z,5.52
2023-02-15T07:29:07.176Z,5.62
2023-02-15T07:30:14.977Z,5.77
2023-02-15T07:31:16.734Z,5.91
2023-02-15T07:32:18.339Z,5.98
2023-02-15T07:33:19.948Z,6.03
2023-02-15T07:34:21.552Z,6.08
2023-02-15T07:35:23.024Z,5.86
2023-02-15T07:36:24.548Z,5.92
2023-02-15T07:37:26.666Z,6.02
2023-02-15T07:38:32.349Z,6.00
2023-02-15T07:39:33.805Z,6.04
2023-02-15T07:40:35.602Z,5.95
2023-02-15T07:41:37.568Z,5.94
2023-02-15T07:42:46.329Z,5.73
2023-02-15T07:43:47.869Z,5.60
2023-02-15T07:44:49.368Z,5.35
2023-02-15T07:45:50.865Z,4.86
2023-02-15T07:46:52.721Z,4.96
2023-02-15T07:47:54.381Z,5.23
2023-02-15T07:48:55.990Z,5.14
2023-02-15T07:49:57.533Z,4.96
2023-02-15T07:51:08.509Z,4.90
2023-02-15T07:52:10.138Z,4.88
2023-02-15T07:53:11.691Z,5.05
2023-02-15T07:54:13.331Z,5.34
2023-02-15T07:55:14.930Z,5.57
2023-02-15T07:56:16.536Z,5.63
2023-02-15T07:57:18.169Z,5.55
2023-02-15T07:58:20.320Z,5.53
2023-02-15T07:59:21.964Z,5.50
2023-02-15T08:00:23.871Z,5.74
2023-02-15T08:01:36.507Z,5.89
2023-02-15T08:02:38.132Z,5.69
2023-02-15T08:03:39.760Z,5.72
2023-02-15T08:04:41.449Z,5.86
2023-02-15T08:05:45.454Z,5.75
2023-02-15T08:06:47.009Z,5.68
2023-02-15T08:07:48.597Z,6.05
2023-02-15T08:08:50.124Z,6.23
2023-02-15T08:09:51.719Z,6.46
2023-02-15T08:10:53.329Z,6.69
2023-02-15T08:11:54.819Z,6.95
2023-02-15T08:12:56.434Z,7.03
2023-02-15T08:14:18.918Z,7.24
2023-02-15T08:15:20.485Z,7.40
2023-02-15T08:16:26.278Z,7.31
2023-02-15T08:17:27.824Z,7.34
2023-02-15T08:18:29.325Z,7.38
2023-02-15T08:19:32.365Z,7.65
2023-02-15T08:20:33.906Z,7.99
2023-02-15T08:21:37.741Z,8.26
2023-02-15T08:22:39.338Z,8.67
2023-02-15T08:23:40.932Z,8.90
2023-02-15T08:24:42.540Z,9.08
2023-02-15T08:25:44.069Z,9.27
2023-02-15T08:26:46.364Z,9.56
2023-02-15T08:27:47.970Z,9.83
2023-02-15T08:28:49.673Z,9.97
2023-02-15T08:29:51.223Z,9.90
2023-02-15T08:30:52.903Z,9.70
2023-02-15T08:31:57.359Z,9.49
2023-02-15T08:32:58.960Z,9.41
2023-02-15T08:34:00.882Z,8.93
2023-02-15T08:35:02.471Z,9.21
2023-02-15T08:36:06.329Z,8.91
2023-02-15T08:37:07.937Z,8.84
2023-02-15T08:38:09.443Z,9.12
2023-02-15T08:39:10.939Z,9.00
2023-02-15T08:40:12.846Z,8.88
2023-02-15T08:41:27.746Z,8.69
2023-02-15T08:42:29.363Z,8.71
2023-02-15T08:43:30.869Z,8.68
2023-02-15T08:44:32.474Z,8.84
2023-02-15T08:45:33.983Z,8.88
2023-02-15T08:46:37.726Z,9.02
2023-02-15T08:47:39.321Z,9.27
2023-02-15T08:48:41.039Z,9.55
2023-02-15T08:49:42.644Z,9.56
2023-02-15T08:50:44.246Z,9.49
2023-02-15T08:51:47.083Z,9.34
2023-02-15T08:52:48.580Z,9.28
2023-02-15T08:53:55.100Z,9.13
2023-02-15T08:54:56.793Z,8.77
2023-02-15T08:55:59.536Z,8.68
2023-02-15T08:57:01.095Z,8.61
2023-02-15T08:58:02.740Z,8.61
2023-02-15T08:59:05.199Z,8.57
2023-02-15T09:00:07.458Z,8.39
2023-02-15T09:01:14.140Z,8.26
2023-02-15T09:02:15.776Z,8.28
2023-02-15T09:03:17.524Z,8.20
2023-02-15T09:04:19.946Z,8.18
2023-02-15T09:05:21.554Z,8.11
2023-02-15T09:06:24.283Z,8.05
2023-02-15T09:07:25.892Z,8.01
2023-02-15T09:08:28.621Z,7.99
2023-02-15T09:09:30.316Z,7.84
2023-02-15T09:10:31.822Z,7.72
2023-02-15T09:11:41.917Z,7.55
2023-02-15T09:12:43.466Z,7.36
2023-02-15T09:13:45.048Z,7.26
2023-02-15T09:14:46.600Z,7.24
2023-02-15T09:15:48.238Z,7.00
2023-02-15T09:16:50.121Z,6.82
2023-02-15T09:17:51.758Z,6.51
2023-02-15T09:18:53.769Z,6.48
2023-02-15T09:19:55.271Z,6.37
2023-02-15T09:20:56.775Z,6.33
2023-02-15T09:21:58.377Z,6.35
2023-02-15T09:23:00.044Z,6.24
2023-02-15T09:24:04.249Z,6.16
2023-02-15T09:25:06.157Z,6.21
2023-02-15T09:26:10.536Z,6.14
2023-02-15T09:27:12.033Z,6.16
2023-02-15T09:28:13.636Z,6.19
2023-02-15T09:29:16.053Z,6.18
2023-02-15T09:30:17.827Z,6.15
2023-02-15T09:31:26.943Z,6.17
2023-02-15T09:32:28.543Z,6.20
2023-02-15T09:33:30.147Z,6.24
2023-02-15T09:34:34.044Z,6.29
2023-02-15T09:35:36.324Z,6.23
2023-02-15T09:36:39.876Z,6.22
2023-02-15T09:37:41.480Z,6.23
2023-02-15T09:38:43.160Z,6.30
2023-02-15T09:39:46.091Z,6.35
2023-02-15T09:41:17.303Z,6.37
2023-02-15T09:42:41.015Z,6.27
2023-02-15T09:44:26.313Z,6.38
2023-02-15T09:45:41.037Z,6.40
2023-02-15T09:47:10.657Z,6.38
2023-02-15T09:48:34.978Z,6.33
2023-02-15T09:49:54.801Z,6.44
2023-02-15T09:51:22.403Z,6.46
2023-02-15T09:53:13.322Z,6.56
2023-02-15T09:54:33.841Z,6.64
2023-02-15T09:55:55.535Z,6.73
2023-02-15T09:57:14.224Z,6.81
2023-02-15T09:58:57.984Z,6.89
2023-02-15T10:00:24.465Z,7.00
2023-02-15T10:02:03.824Z,7.01
2023-02-15T10:03:23.440Z,7.06
2023-02-15T10:04:56.031Z,7.11
2023-02-15T10:06:21.920Z,7.12
2023-02-15T10:07:49.820Z,7.18
2023-02-15T10:09:19.045Z,7.21
2023-02-15T10:11:10.287Z,7.27
2023-02-15T10:12:23.876Z,7.29
2023-02-15T10:13:51.590Z,7.30
2023-02-15T10:15:24.588Z,7.37
2023-02-15T10:16:45.708Z,7.40
2023-02-15T10:18:19.371Z,7.47
2023-02-15T10:19:57.201Z,7.39
2023-02-15T10:21:20.091Z,7.44
2023-02-15T10:22:38.692Z,7.54
2023-02-15T10:24:09.049Z,7.53
2023-02-15T10:25:28.760Z,7.51
2023-02-15T10:26:43.883Z,7.69
2023-02-15T10:27:50.750Z,7.77
2023-02-15T10:28:56.295Z,7.80
2023-02-15T10:30:03.530Z,7.80
2023-02-15T10:31:25.512Z,7.83
2023-02-15T10:32:28.500Z,7.82
2023-02-15T10:33:36.375Z,7.88
2023-02-15T10:34:39.624Z,7.88
2023-02-15T10:36:10.394Z,7.87
2023-02-15T10:37:30.719Z,7.89
2023-02-15T10:38:43.391Z,8.06
2023-02-15T10:39:47.953Z,8.12
2023-02-15T10:41:02.145Z,8.06
2023-02-15T10:42:16.642Z,8.06
2023-02-15T10:43:21.213Z,8.09
2023-02-15T10:44:44.210Z,8.13
2023-02-15T10:46:06.128Z,8.18
2023-02-15T10:47:26.319Z,8.18
2023-02-15T10:48:57.072Z,8.18
2023-02-15T10:50:33.367Z,8.23
2023-02-15T10:51:46.751Z,8.32
2023-02-15T10:53:09.938Z,8.31
2023-02-15T10:54:33.340Z,8.33
2023-02-15T10:55:53.652Z,8.26
2023-02-15T10:57:13.294Z,8.19
2023-02-15T10:58:36.730Z,8.28
2023-02-15T10:59:41.162Z,8.30
2023-02-15T11:00:46.252Z,8.26
2023-02-15T11:01:53.934Z,8.30
2023-02-15T11:02:55.488Z,8.31
2023-02-15T11:04:18.791Z,8.35
2023-02-15T11:05:26.333Z,8.39
2023-02-15T11:06:28.650Z,8.35
2023-02-15T11:07:35.883Z,8.37
2023-02-15T11:08:43.018Z,8.38
2023-02-15T11:09:50.463Z,8.36
2023-02-15T11:11:03.608Z,8.38
2023-02-15T11:12:13.721Z,8.49
2023-02-15T11:13:18.408Z,8.60
2023-02-15T11:15:11.383Z,8.72
2023-02-15T11:16:18.933Z,8.76
2023-02-15T11:17:30.949Z,8.81
2023-02-15T11:18:39.049Z,8.84
2023-02-15T11:20:20.991Z,8.85
2023-02-15T11:21:35.596Z,8.89
2023-02-15T11:22:37.185Z,8.87
2023-02-15T11:23:45.232Z,8.88
2023-02-15T11:24:47.901Z,8.89
2023-02-15T11:25:57.525Z,8.90
2023-02-15T11:27:05.586Z,8.81
2023-02-15T11:28:21.305Z,8.68
2023-02-15T11:29:41.991Z,8.70
2023-02-15T11:30:46.904Z,8.65
2023-02-15T11:32:02.649Z,8.65
2023-02-15T11:33:07.216Z,8.74
2023-02-15T11:34:30.221Z,8.83
2023-02-15T11:35:37.954Z,8.79
2023-02-15T11:36:42.064Z,8.77
2023-02-15T11:37:51.636Z,8.74
2023-02-15T11:39:01.430Z,8.81
2023-02-15T11:40:13.445Z,8.87
2023-02-15T11:41:20.240Z,8.85
2023-02-15T11:42:26.476Z,8.81
2023-02-15T11:43:40.848Z,8.91
2023-02-15T11:45:00.053Z,8.89
2023-02-15T11:46:01.919Z,8.85
2023-02-15T11:47:03.812Z,8.83
2023-02-15T11:48:13.794Z,8.77
2023-02-15T11:49:22.890Z,8.71
2023-02-15T11:50:27.680Z,8.70
2023-02-15T11:51:29.875Z,8.76
2023-02-15T11:52:31.941Z,8.84
2023-02-15T11:53:36.933Z,8.79
2023-02-15T11:54:43.773Z,8.84
2023-02-15T11:55:48.055Z,8.89
2023-02-15T11:56:49.691Z,8.85
2023-02-15T11:58:04.167Z,8.71
2023-02-15T11:59:28.477Z,8.67
2023-02-15T12:00:43.409Z,8.66
2023-02-15T12:01:47.257Z,8.62
2023-02-15T12:02:53.491Z,8.60
2023-02-15T12:04:00.310Z,8.66
2023-02-15T12:05:06.516Z,8.70
2023-02-15T12:06:28.432Z,8.71
2023-02-15T12:07:35.735Z,8.77
2023-02-15T12:08:44.985Z,8.77
2023-02-15T12:10:14.661Z,8.76
2023-02-15T12:11:20.687Z,8.86
2023-02-15T12:12:29.404Z,8.90
2023-02-15T12:13:31.041Z,8.93
2023-02-15T12:14:48.964Z,8.91
2023-02-15T12:15:56.394Z,8.93
2023-02-15T12:16:58.043Z,8.89
2023-02-15T12:17:59.664Z,8.89
2023-02-15T12:19:02.934Z,8.85
2023-02-15T12:20:31.647Z,8.82
2023-02-15T12:21:40.360Z,8.72
2023-02-15T12:22:54.841Z,8.73
2023-02-15T12:24:10.381Z,8.70
2023-02-15T12:25:29.226Z,8.62
2023-02-15T12:26:33.549Z,8.62
2023-02-15T12:27:36.365Z,8.63
2023-02-15T12:28:42.531Z,8.62
2023-02-15T12:29:50.481Z,8.66
2023-02-15T12:30:54.122Z,8.68
2023-02-15T12:31:56.114Z,8.71
2023-02-15T12:33:06.476Z,8.71
2023-02-15T12:34:20.010Z,8.68
2023-02-15T12:35:32.941Z,8.64
2023-02-15T12:36:44.520Z,8.62
2023-02-15T12:37:57.104Z,8.55
2023-02-15T12:39:13.820Z,8.60
2023-02-15T12:40:24.324Z,8.65
2023-02-15T12:41:27.213Z,8.70
2023-02-15T12:42:42.197Z,8.67
2023-02-15T12:43:43.709Z,8.57
2023-02-15T12:44:55.651Z,8.60
2023-02-15T12:46:15.000Z,8.63
2023-02-15T12:47:20.628Z,8.66
2023-02-15T12:48:22.171Z,8.65
2023-02-15T12:49:23.707Z,8.63
2023-02-15T12:50:25.578Z,8.63
2023-02-15T12:51:28.625Z,8.64
2023-02-15T12:52:30.161Z,8.58
2023-02-15T12:53:34.097Z,8.56
2023-02-15T12:54:35.970Z,8.50
2023-02-15T12:55:37.584Z,8.51
2023-02-15T12:56:39.089Z,8.50
2023-02-15T12:57:40.570Z,8.43
2023-02-15T12:58:42.610Z,8.49
2023-02-15T12:59:52.984Z,8.45
2023-02-15T13:01:10.871Z,8.47
2023-02-15T13:02:22.989Z,8.49
2023-02-15T13:03:24.650Z,8.43
2023-02-15T13:04:29.121Z,8.40
2023-02-15T13:05:38.294Z,8.40
2023-02-15T13:06:49.035Z,8.44
2023-02-15T13:08:04.506Z,8.38
2023-02-15T13:09:18.730Z,8.34
2023-02-15T13:10:30.579Z,8.30
2023-02-15T13:11:33.234Z,8.31
2023-02-15T13:12:36.032Z,8.30
2023-02-15T13:13:59.146Z,8.33
2023-02-15T13:15:00.764Z,8.29
2023-02-15T13:16:10.546Z,8.23
2023-02-15T13:17:14.673Z,8.12
2023-02-15T13:18:23.031Z,8.03
2023-02-15T13:19:50.314Z,8.01
2023-02-15T13:20:52.967Z,8.08
2023-02-15T13:21:57.390Z,8.08
2023-02-15T13:23:04.220Z,8.07
2023-02-15T13:24:26.617Z,8.08
2023-02-15T13:25:33.141Z,8.03
2023-02-15T13:26:36.294Z,7.99
2023-02-15T13:27:40.674Z,7.90
2023-02-15T13:28:47.709Z,7.90
2023-02-15T13:29:56.212Z,7.88
2023-02-15T13:30:57.899Z,7.79
2023-02-15T13:32:07.869Z,7.67
2023-02-15T13:33:31.435Z,7.72
2023-02-15T13:34:37.036Z,7.74
2023-02-15T13:35:47.783Z,7.78
2023-02-15T13:37:16.721Z,7.78
2023-02-15T13:38:31.983Z,7.76
2023-02-15T13:39:45.341Z,7.68
2023-02-15T13:40:56.239Z,7.77
2023-02-15T13:42:06.365Z,7.77
2023-02-15T13:43:19.907Z,7.79
2023-02-15T13:44:51.935Z,7.74
2023-02-15T13:46:13.961Z,7.69
2023-02-15T13:47:21.609Z,7.64
2023-02-15T13:48:48.789Z,7.62
2023-02-15T13:50:01.503Z,7.61
2023-02-15T13:51:49.517Z,7.62
2023-02-15T13:53:25.637Z,7.55
2023-02-15T13:54:32.663Z,7.54
2023-02-15T13:55:58.685Z,7.55
2023-02-15T13:57:30.113Z,7.50
2023-02-15T13:58:46.529Z,7.54
2023-02-15T14:00:27.162Z,7.49
2023-02-15T14:01:45.172Z,7.52
2023-02-15T14:03:08.077Z,7.42
2023-02-15T14:04:46.547Z,7.42
2023-02-15T14:05:58.061Z,7.39
2023-02-15T14:07:11.818Z,7.35
2023-02-15T14:08:21.119Z,7.34
2023-02-15T14:09:28.669Z,7.37
2023-02-15T14:10:38.215Z,7.38
2023-02-15T14:12:07.637Z,7.37
2023-02-15T14:13:21.711Z,7.34
2023-02-15T14:14:43.730Z,7.38
2023-02-15T14:15:47.396Z,7.33
2023-02-15T14:17:06.996Z,7.31
2023-02-15T14:18:20.677Z,7.15
2023-02-15T14:19:37.944Z,7.14
2023-02-15T14:20:42.145Z,7.00
2023-02-15T14:22:08.411Z,7.07
2023-02-15T14:23:28.919Z,7.05
2023-02-15T14:24:53.450Z,7.02
2023-02-15T14:26:04.580Z,6.91
2023-02-15T14:27:44.614Z,6.88
2023-02-15T14:28:57.972Z,6.80
2023-02-15T14:30:11.281Z,6.80
2023-02-15T14:31:15.406Z,6.80
2023-02-15T14:32:41.256Z,6.78
2023-02-15T14:33:55.726Z,6.81
2023-02-15T14:35:04.033Z,6.76
2023-02-15T14:36:08.861Z,6.72
2023-02-15T14:37:12.986Z,6.73
2023-02-15T14:38:26.717Z,6.68
2023-02-15T14:39:49.368Z,6.67
2023-02-15T14:41:10.470Z,6.67
2023-02-15T14:42:44.646Z,6.65
2023-02-15T14:44:19.545Z,6.65
2023-02-15T14:45:33.780Z,6.66
2023-02-15T14:47:03.613Z,6.67
2023-02-15T14:48:14.102Z,6.60
2023-02-15T14:49:32.947Z,6.59
2023-02-15T14:50:44.972Z,6.64
2023-02-15T14:51:46.616Z,6.60
2023-02-15T14:53:33.768Z,6.63
2023-02-15T14:54:35.242Z,6.51